Time;durP1;ratioP1;P1;durP2;ratioP2;P2;SDS_P1;SDS_P2;PMS_P1;PMS_P2;Temp;Humidity;BMP_temperature;BMP_pressure;BME280_temperature;BME280_humidity;BME280_pressure;Samples;Min_cycle;Max_cycle;Signal;HPM_P1;HPM_P2
2022/02/19 00:01:45;;;;;;;25.65;16.90;;;25.40;99.90;;;;;;1887563;73;21237;-90
2022/02/19 00:04:16;;;;;;;21.62;15.93;;;25.40;99.90;;;;;;1912193;73;21236;-89
2022/02/19 00:06:47;;;;;;;21.57;14.70;;;25.40;99.90;;;;;;1893306;74;21186;-89
2022/02/19 00:09:17;;;;;;;19.73;14.63;;;25.40;99.90;;;;;;1914543;73;21173;-91
2022/02/19 00:11:48;;;;;;;21.27;14.60;;;25.40;99.90;;;;;;1917690;74;21082;-86
2022/02/19 00:14:19;;;;;;;19.25;14.28;;;25.40;99.90;;;;;;1919503;74;21110;-91
2022/02/19 00:16:50;;;;;;;23.77;14.13;;;25.40;99.90;;;;;;1933064;73;21138;-91
2022/02/19 00:19:20;;;;;;;22.20;15.75;;;25.40;99.90;;;;;;1923952;73;21653;-91
2022/02/19 00:21:51;;;;;;;20.43;14.18;;;25.40;99.90;;;;;;1909048;74;21147;-90
2022/02/19 00:24:22;;;;;;;20.88;14.83;;;25.40;99.90;;;;;;1916281;74;21147;-90
2022/02/19 00:26:54;;;;;;;21.33;14.45;;;25.40;99.90;;;;;;1917474;73;21171;-89
2022/02/19 00:29:25;;;;;;;21.80;14.70;;;25.40;99.90;;;;;;1910652;74;21196;-92
2022/02/19 00:31:55;;;;;;;20.68;15.93;;;25.40;99.90;;;;;;1923258;73;21195;-91
2022/02/19 00:34:26;;;;;;;21.82;16.12;;;25.40;99.90;;;;;;1915411;73;21123;-88
2022/02/19 00:36:57;;;;;;;23.60;15.20;;;25.50;99.90;;;;;;1901528;73;21116;-83
2022/02/19 00:39:29;;;;;;;24.43;15.78;;;25.40;99.90;;;;;;1887645;75;21500;-79
2022/02/19 00:42:06;;;;;;;25.72;13.85;;;25.40;99.90;;;;;;1880159;74;21717;-83
2022/02/19 00:44:37;;;;;;;19.20;13.03;;;25.50;99.90;;;;;;1872255;74;21736;-81
2022/02/19 00:47:09;;;;;;;18.70;11.70;;;25.50;99.90;;;;;;1865496;74;21166;-80
2022/02/19 00:49:40;;;;;;;18.12;12.10;;;25.60;99.80;;;;;;1899747;74;21230;-82
2022/02/19 00:52:13;;;;;;;19.15;12.15;;;25.60;99.70;;;;;;1930290;73;21226;-83
2022/02/19 00:54:44;;;;;;;18.37;11.10;;;25.60;99.60;;;;;;1938560;73;21131;-81
2022/02/19 00:57:15;;;;;;;20.17;12.03;;;25.70;99.60;;;;;;1923681;73;21642;-80
2022/02/19 00:59:46;;;;;;;14.98;10.60;;;25.80;99.60;;;;;;1930344;73;21228;-81
2022/02/19 01:02:20;;;;;;;15.15;9.48;;;25.90;99.40;;;;;;1933138;74;21118;-84
2022/02/19 01:04:49;;;;;;;15.53;10.00;;;25.90;99.00;;;;;;1929233;73;21121;-81
2022/02/19 01:07:23;;;;;;;13.80;9.00;;;26.10;98.90;;;;;;1886888;74;21158;-80
2022/02/19 01:09:53;;;;;;;13.15;9.45;;;26.10;98.90;;;;;;1931883;73;21625;-81
2022/02/19 01:12:24;;;;;;;13.85;8.88;;;26.20;98.80;;;;;;1894453;74;21130;-82
2022/02/19 01:14:56;;;;;;;12.78;8.43;;;26.30;98.80;;;;;;1897920;72;21063;-81
2022/02/19 01:17:36;;;;;;;11.12;7.70;;;26.40;98.60;;;;;;1880899;74;21206;-81
2022/02/19 01:20:46;;;;;;;;;;;;;;;;;;;;;
2022/02/19 01:23:02;;;;;;;9.40;7.08;;;26.50;98.30;;;;;;1919666;73;21219;-82
2022/02/19 01:25:34;;;;;;;11.48;7.78;;;26.50;97.70;;;;;;1799719;76;21688;-82
2022/02/19 01:28:14;;;;;;;10.20;7.10;;;26.60;97.50;;;;;;1904598;72;21082;-82
2022/02/19 01:30:46;;;;;;;12.33;7.58;;;26.60;97.60;;;;;;1926453;73;21582;-82
2022/02/19 01:33:17;;;;;;;12.05;7.90;;;26.50;97.50;;;;;;1890354;74;21060;-81
2022/02/19 01:35:47;;;;;;;11.68;7.50;;;26.50;97.50;;;;;;1932995;73;21260;-82
2022/02/19 01:38:18;;;;;;;11.50;6.17;;;26.50;98.00;;;;;;1885297;74;21123;-80
2022/02/19 01:40:53;;;;;;;11.85;6.65;;;26.60;97.30;;;;;;1886221;73;21147;-81
2022/02/19 01:43:25;;;;;;;10.53;6.20;;;26.60;97.20;;;;;;1903974;74;21256;-79
2022/02/19 01:45:55;;;;;;;15.28;6.90;;;26.60;97.40;;;;;;1912167;73;21194;-81
2022/02/19 01:48:26;;;;;;;12.35;6.40;;;26.70;97.40;;;;;;1906347;74;21189;-74
2022/02/19 01:50:57;;;;;;;10.90;6.45;;;26.70;97.30;;;;;;1938589;73;21196;-73
2022/02/19 01:53:28;;;;;;;12.98;6.92;;;26.80;97.30;;;;;;1934797;73;21128;-73
2022/02/19 01:55:59;;;;;;;10.35;5.95;;;26.90;97.30;;;;;;1903311;73;21160;-74
2022/02/19 01:58:30;;;;;;;10.93;5.85;;;27.00;97.50;;;;;;1924517;72;21148;-74
2022/02/19 02:01:01;;;;;;;9.10;5.67;;;27.00;96.60;;;;;;1888609;73;21173;-73
2022/02/19 02:03:32;;;;;;;8.83;5.40;;;27.20;96.70;;;;;;1895779;73;21808;-75
2022/02/19 02:06:03;;;;;;;20.50;5.03;;;27.20;96.60;;;;;;1929594;73;21583;-74
2022/02/19 02:08:35;;;;;;;7.03;4.45;;;27.30;96.30;;;;;;1885447;74;21140;-73
2022/02/19 02:11:06;;;;;;;9.05;4.55;;;27.40;96.00;;;;;;1931530;72;21120;-73
2022/02/19 02:13:37;;;;;;;5.40;4.22;;;27.60;95.60;;;;;;1895234;74;21159;-75
2022/02/19 02:16:08;;;;;;;6.37;3.87;;;27.60;95.10;;;;;;1930318;73;21658;-74
2022/02/19 02:18:39;;;;;;;7.70;4.65;;;27.70;95.20;;;;;;1882260;74;22679;-76
2022/02/19 02:21:09;;;;;;;6.80;4.62;;;27.80;95.10;;;;;;1883334;74;21142;-75
2022/02/19 02:23:40;;;;;;;10.32;4.87;;;27.80;94.60;;;;;;1934614;72;21695;-75
2022/02/19 02:26:12;;;;;;;10.63;4.58;;;27.90;94.50;;;;;;1923071;73;21622;-73
2022/02/19 02:28:43;;;;;;;10.32;5.08;;;27.90;94.40;;;;;;1920175;72;21190;-74
2022/02/19 02:31:17;;;;;;;9.50;4.30;;;27.90;94.40;;;;;;1938612;72;21601;-75
2022/02/19 02:33:50;;;;;;;8.10;4.65;;;27.90;94.40;;;;;;1912756;73;21221;-73
2022/02/19 02:36:21;;;;;;;5.87;4.45;;;27.80;94.40;;;;;;1869168;73;21638;-74
2022/02/19 02:38:57;;;;;;;6.03;4.12;;;27.80;94.50;;;;;;1925953;73;21197;-74
2022/02/19 02:41:28;;;;;;;7.15;4.42;;;27.90;94.40;;;;;;1885923;73;21139;-73
2022/02/19 02:43:59;;;;;;;12.53;4.70;;;27.90;94.30;;;;;;1880481;74;21536;-73
2022/02/19 02:46:32;;;;;;;8.63;4.85;;;28.00;94.10;;;;;;1910186;73;21161;-74
2022/02/19 02:49:03;;;;;;;9.93;4.90;;;28.00;94.20;;;;;;1873090;74;21180;-73
2022/02/19 02:51:34;;;;;;;7.62;4.70;;;28.10;94.50;;;;;;1935746;73;21158;-73
2022/02/19 02:54:05;;;;;;;11.55;4.67;;;28.20;94.10;;;;;;1921797;72;21624;-72
2022/02/19 02:56:35;;;;;;;8.03;4.85;;;28.30;94.50;;;;;;1917212;72;21135;-73
2022/02/19 02:59:06;;;;;;;9.10;4.62;;;28.50;94.10;;;;;;1892568;74;21751;-74
2022/02/19 03:01:37;;;;;;;8.88;4.80;;;28.50;93.00;;;;;;1896442;74;21131;-72
2022/02/19 03:04:08;;;;;;;8.45;4.62;;;28.60;93.20;;;;;;1953853;72;21189;-72
2022/02/19 03:06:39;;;;;;;9.98;4.85;;;28.60;93.00;;;;;;1920041;73;21100;-72
2022/02/19 03:09:18;;;;;;;9.08;4.72;;;28.60;93.00;;;;;;1933541;72;21108;-74
2022/02/19 03:11:47;;;;;;;8.90;4.50;;;28.70;93.20;;;;;;1916193;72;21136;-73
2022/02/19 03:14:18;;;;;;;7.80;5.00;;;28.80;92.90;;;;;;1922688;73;21088;-72
2022/02/19 03:16:52;;;;;;;9.25;5.05;;;28.80;92.90;;;;;;1905138;73;21235;-72
2022/02/19 03:19:23;;;;;;;6.92;5.00;;;28.90;92.80;;;;;;1933296;73;21201;-72
2022/02/19 03:21:54;;;;;;;9.65;5.17;;;29.00;92.50;;;;;;1906797;73;21732;-72
2022/02/19 03:24:25;;;;;;;8.68;4.58;;;29.10;92.40;;;;;;1908860;73;21606;-73
2022/02/19 03:26:58;;;;;;;7.35;4.30;;;29.20;91.30;;;;;;1922560;73;21608;-72
2022/02/19 03:29:28;;;;;;;5.12;4.35;;;29.30;91.60;;;;;;1946551;73;21059;-72
2022/02/19 03:31:59;;;;;;;7.47;4.65;;;29.40;91.10;;;;;;1876135;74;21181;-73
2022/02/19 03:34:30;;;;;;;14.03;5.37;;;29.40;91.20;;;;;;1881992;74;21700;-73
2022/02/19 03:37:01;;;;;;;8.48;4.75;;;29.60;90.80;;;;;;1856426;75;21170;-74
2022/02/19 03:39:32;;;;;;;11.43;5.20;;;29.70;90.30;;;;;;1876908;73;21254;-73
2022/02/19 03:42:03;;;;;;;7.20;4.92;;;29.70;90.30;;;;;;1905090;73;21539;-73
2022/02/19 03:44:34;;;;;;;9.98;5.08;;;29.80;90.20;;;;;;1881350;75;21309;-73
2022/02/19 03:47:05;;;;;;;8.93;5.22;;;29.90;90.40;;;;;;1905633;74;21169;-72
2022/02/19 03:49:36;;;;;;;8.98;5.15;;;30.00;90.20;;;;;;1896890;74;21131;-71
2022/02/19 03:52:07;;;;;;;10.98;5.15;;;30.10;90.00;;;;;;1904919;73;21092;-72
2022/02/19 03:54:51;;;;;;;9.28;5.10;;;30.10;89.90;;;;;;1931498;72;21718;-73
2022/02/19 03:57:10;;;;;;;7.70;4.80;;;30.10;89.70;;;;;;1890420;73;21666;-73
2022/02/19 03:59:41;;;;;;;8.03;5.33;;;30.10;90.10;;;;;;1926739;73;21120;-73
2022/02/19 04:02:12;;;;;;;6.92;4.90;;;30.20;90.40;;;;;;1930931;71;21111;-74
2022/02/19 04:04:43;;;;;;;8.63;4.72;;;30.30;90.70;;;;;;1890441;73;21147;-72
2022/02/19 04:07:15;;;;;;;9.05;4.87;;;30.40;90.70;;;;;;1919024;72;21140;-72
2022/02/19 04:09:45;;;;;;;11.15;5.47;;;30.60;89.40;;;;;;1928597;72;21261;-72
2022/02/19 04:12:16;;;;;;;8.15;5.25;;;30.60;88.00;;;;;;1898594;72;21705;-70
2022/02/19 04:14:47;;;;;;;8.45;4.90;;;30.60;87.70;;;;;;1932782;72;21674;-71
2022/02/19 04:17:18;;;;;;;10.05;5.58;;;30.70;89.00;;;;;;1940815;72;21213;-71
2022/02/19 04:19:50;;;;;;;9.03;5.17;;;30.80;87.20;;;;;;1901070;74;21175;-71
2022/02/19 04:22:22;;;;;;;8.85;4.97;;;31.00;87.40;;;;;;1890031;74;21272;-70
2022/02/19 04:24:54;;;;;;;7.20;4.37;;;31.10;86.20;;;;;;1889447;73;21174;-71
2022/02/19 04:27:25;;;;;;;5.20;4.30;;;31.30;83.60;;;;;;1900104;74;21141;-71
2022/02/19 04:29:56;;;;;;;7.60;4.53;;;31.30;83.60;;;;;;1903966;74;21811;-70
2022/02/19 04:32:28;;;;;;;8.80;4.30;;;31.30;84.10;;;;;;1896682;74;21261;-70
2022/02/19 04:34:59;;;;;;;8.20;4.30;;;31.30;83.50;;;;;;1920237;72;21216;-71
2022/02/19 04:37:29;;;;;;;7.45;4.42;;;31.40;82.50;;;;;;1874134;73;21138;-71
2022/02/19 04:40:00;;;;;;;8.55;5.00;;;31.30;83.60;;;;;;1935371;72;21132;-71
2022/02/19 04:42:31;;;;;;;6.22;4.55;;;31.40;84.50;;;;;;1928773;72;21610;-72
2022/02/19 04:45:02;;;;;;;10.98;3.77;;;31.30;83.40;;;;;;1925188;72;21272;-71
2022/02/19 04:47:34;;;;;;;6.12;4.05;;;31.10;82.10;;;;;;1906907;73;21539;-71
2022/02/19 04:50:06;;;;;;;6.15;3.80;;;31.10;84.50;;;;;;1880706;74;21184;-71
2022/02/19 04:52:37;;;;;;;7.10;4.20;;;31.00;83.40;;;;;;1883716;74;21255;-72
2022/02/19 04:55:09;;;;;;;13.08;4.65;;;30.80;84.40;;;;;;1874804;74;21143;-71
2022/02/19 04:57:44;;;;;;;9.85;3.87;;;30.60;87.10;;;;;;1919267;73;21196;-71
2022/02/19 05:00:14;;;;;;;6.62;2.87;;;30.30;88.00;;;;;;1919458;73;21786;-73
2022/02/19 05:02:45;;;;;;;7.65;3.47;;;29.80;88.10;;;;;;1941004;72;21816;-71
2022/02/19 05:05:16;;;;;;;7.85;3.27;;;29.40;90.90;;;;;;1884934;74;21088;-71
2022/02/19 05:07:47;;;;;;;8.00;3.83;;;29.00;92.00;;;;;;1905060;73;21134;-70
2022/02/19 05:10:18;;;;;;;7.55;3.70;;;28.80;92.60;;;;;;1881281;74;21220;-71
2022/02/19 05:12:50;;;;;;;4.65;3.15;;;28.70;93.60;;;;;;1880508;74;21240;-70
2022/02/19 05:15:21;;;;;;;7.35;3.98;;;28.80;92.50;;;;;;1912505;73;21108;-71
2022/02/19 05:17:55;;;;;;;6.00;4.92;;;28.80;93.30;;;;;;1901746;74;21634;-72
2022/02/19 05:20:33;;;;;;;8.05;5.22;;;29.00;93.90;;;;;;1915576;72;21169;-71
2022/02/19 05:23:06;;;;;;;6.35;5.03;;;29.30;93.90;;;;;;1889142;74;21200;-72
2022/02/19 05:25:41;;;;;;;8.38;4.62;;;29.60;92.80;;;;;;1939001;72;21691;-71
2022/02/19 05:28:10;;;;;;;7.78;4.90;;;29.80;92.20;;;;;;1889756;73;21142;-72
2022/02/19 05:30:40;;;;;;;8.28;5.62;;;30.10;90.90;;;;;;1916366;72;21218;-72
2022/02/19 05:33:12;;;;;;;9.93;4.67;;;30.30;90.80;;;;;;1929513;73;21071;-71
2022/02/19 05:35:42;;;;;;;9.80;4.58;;;30.40;90.10;;;;;;1923535;72;21215;-70
2022/02/19 05:38:13;;;;;;;9.43;4.53;;;30.60;90.30;;;;;;1927736;73;21771;-72
2022/02/19 05:40:43;;;;;;;12.78;6.20;;;30.60;90.50;;;;;;1865185;75;21183;-71
2022/02/19 05:43:14;;;;;;;10.08;5.40;;;30.70;90.00;;;;;;1926416;72;21071;-73
2022/02/19 05:45:47;;;;;;;5.85;4.40;;;30.60;89.30;;;;;;1893487;74;21202;-72
2022/02/19 05:48:17;;;;;;;6.55;4.95;;;30.50;88.60;;;;;;1922778;72;21113;-71
2022/02/19 05:50:50;;;;;;;8.08;5.22;;;30.40;88.60;;;;;;1911355;73;21730;-72
2022/02/19 05:53:20;;;;;;;6.37;4.17;;;30.40;90.20;;;;;;1905572;73;21108;-71
2022/02/19 05:55:51;;;;;;;9.40;3.95;;;30.40;90.00;;;;;;1896859;72;21568;-72
2022/02/19 05:58:21;;;;;;;7.33;4.70;;;30.60;87.40;;;;;;1890590;74;21211;-71
2022/02/19 06:00:52;;;;;;;5.90;3.30;;;30.80;87.40;;;;;;1905581;73;21154;-69
2022/02/19 06:03:23;;;;;;;5.80;3.45;;;31.00;84.80;;;;;;1922917;73;21273;-72
2022/02/19 06:06:04;;;;;;;5.00;3.05;;;31.20;82.80;;;;;;1887655;74;21280;-74
2022/02/19 06:08:29;;;;;;;;;;;31.40;82.00;;;;;;1899058;74;21259;-73
2022/02/19 06:11:00;;;;;;;4.42;2.67;;;31.60;78.80;;;;;;1932909;73;20202;-71
2022/02/19 06:13:34;;;;;;;7.37;3.05;;;31.80;79.10;;;;;;1881362;74;21092;-71
2022/02/19 06:16:05;;;;;;;5.80;2.92;;;32.00;75.20;;;;;;1886539;74;21143;-71
2022/02/19 06:18:38;;;;;;;4.55;3.35;;;32.00;75.70;;;;;;1915910;73;21081;-72
2022/02/19 06:21:10;;;;;;;5.03;3.08;;;32.00;75.00;;;;;;1908149;73;21156;-72
2022/02/19 06:23:43;;;;;;;5.85;2.95;;;32.10;75.00;;;;;;1862280;75;21187;-72
2022/02/19 06:26:14;;;;;;;8.43;4.00;;;32.20;76.40;;;;;;1940636;72;21578;-72
2022/02/19 06:28:45;;;;;;;4.58;2.95;;;32.30;77.30;;;;;;1910865;74;21238;-71
2022/02/19 06:31:19;;;;;;;6.00;3.25;;;32.40;74.90;;;;;;1945232;72;21213;-72
2022/02/19 06:33:51;;;;;;;6.53;3.22;;;32.60;79.00;;;;;;1918619;72;21138;-71
2022/02/19 06:36:23;;;;;;;7.47;4.00;;;32.60;75.40;;;;;;1890229;74;21228;-71
2022/02/19 06:39:06;;;;;;;4.95;3.02;;;32.60;77.30;;;;;;1906140;73;21079;-71
2022/02/19 06:41:35;;;;;;;7.30;3.70;;;32.50;74.80;;;;;;1913677;72;21500;-72
2022/02/19 06:44:06;;;;;;;6.92;3.80;;;32.50;77.30;;;;;;1918726;73;21649;-70
2022/02/19 06:46:37;;;;;;;4.95;3.17;;;32.40;77.50;;;;;;1928726;73;21188;-69
2022/02/19 06:49:08;;;;;;;4.58;3.30;;;32.50;77.20;;;;;;1931168;73;21135;-71
2022/02/19 06:51:39;;;;;;;5.17;3.20;;;32.60;74.80;;;;;;1902779;73;21134;-70
2022/02/19 06:54:10;;;;;;;5.35;2.83;;;32.60;73.40;;;;;;1880903;74;21145;-71
2022/02/19 06:56:42;;;;;;;5.50;3.22;;;32.70;74.40;;;;;;1936670;72;21111;-71
2022/02/19 06:59:18;;;;;;;6.65;3.25;;;32.70;73.10;;;;;;1908574;73;21668;-72
2022/02/19 07:01:50;;;;;;;6.62;3.05;;;32.60;75.80;;;;;;1911921;72;21198;-71
2022/02/19 07:04:29;;;;;;;5.90;3.72;;;32.60;72.70;;;;;;1888484;74;21147;-71
2022/02/19 07:07:01;;;;;;;6.55;3.00;;;32.60;74.10;;;;;;1865809;75;21225;-73
2022/02/19 07:09:40;;;;;;;;;;;32.50;73.00;;;;;;1854716;75;21279;-71
2022/02/19 07:12:11;;;;;;;4.72;3.40;;;32.30;75.30;;;;;;1884371;74;20191;-71
2022/02/19 07:14:42;;;;;;;10.03;3.90;;;32.20;76.50;;;;;;1937754;73;21129;-72
2022/02/19 07:17:19;;;;;;;9.15;4.33;;;32.10;76.30;;;;;;1930347;73;21124;-72
2022/02/19 07:19:51;;;;;;;5.20;3.92;;;32.10;77.30;;;;;;1847962;76;21131;-70
2022/02/19 07:22:22;;;;;;;6.05;3.35;;;32.00;76.80;;;;;;1894848;73;21603;-71
2022/02/19 07:24:53;;;;;;;7.05;3.98;;;32.10;79.90;;;;;;1891942;75;21193;-70
2022/02/19 07:27:24;;;;;;;7.55;3.60;;;32.00;78.30;;;;;;1886537;74;21657;-70
2022/02/19 07:29:58;;;;;;;8.53;3.70;;;31.90;76.70;;;;;;1868563;75;21246;-70
2022/02/19 07:32:26;;;;;;;7.55;3.98;;;31.80;76.60;;;;;;1918583;73;21160;-70
2022/02/19 07:34:57;;;;;;;8.05;3.90;;;31.80;75.40;;;;;;1921571;73;21588;-71
2022/02/19 07:37:27;;;;;;;8.70;4.05;;;31.70;76.50;;;;;;1927772;72;21775;-70
2022/02/19 07:39:58;;;;;;;8.55;3.80;;;31.70;78.30;;;;;;1921293;73;21236;-70
2022/02/19 07:42:36;;;;;;;8.63;3.72;;;31.80;79.60;;;;;;1905606;72;21503;-71
2022/02/19 07:45:07;;;;;;;5.83;3.98;;;31.70;79.30;;;;;;1921952;73;21100;-70
2022/02/19 07:47:41;;;;;;;8.45;4.05;;;31.70;77.40;;;;;;1879375;75;21171;-70
2022/02/19 08:00:27;;;;;;;5.95;3.22;;;31.60;78.40;;;;;;1914414;72;21205;-72
2022/02/19 08:02:58;;;;;;;5.37;3.15;;;31.60;77.20;;;;;;1886621;74;21719;-71
2022/02/19 08:05:29;;;;;;;6.95;3.52;;;31.70;76.30;;;;;;1911561;73;21235;-72
2022/02/19 08:08:00;;;;;;;5.35;3.70;;;31.80;76.50;;;;;;1944106;72;22062;-71
2022/02/19 08:10:35;;;;;;;5.83;3.77;;;31.80;78.10;;;;;;1929777;72;21644;-71
2022/02/19 08:13:11;;;;;;;7.92;3.77;;;31.80;79.60;;;;;;1895023;73;21057;-72
2022/02/19 08:15:41;;;;;;;5.53;3.47;;;31.80;81.90;;;;;;1912722;73;21669;-73
2022/02/19 08:18:13;;;;;;;6.47;3.65;;;31.90;80.00;;;;;;1919626;74;21307;-74
2022/02/19 08:20:46;;;;;;;5.58;3.25;;;32.00;77.20;;;;;;1891484;74;21670;-72
2022/02/19 08:23:19;;;;;;;6.35;3.98;;;32.10;79.20;;;;;;1917802;73;21218;-74
2022/02/19 08:25:51;;;;;;;7.90;3.58;;;32.00;74.60;;;;;;1919622;72;21525;-72
2022/02/19 08:28:22;;;;;;;9.45;3.72;;;32.00;78.00;;;;;;1900080;72;21111;-71
2022/02/19 08:30:54;;;;;;;12.15;3.95;;;32.00;77.60;;;;;;1892530;73;21689;-72
2022/02/19 08:33:28;;;;;;;5.78;3.33;;;31.90;79.40;;;;;;1892532;75;21141;-72
2022/02/19 08:35:59;;;;;;;13.48;4.70;;;31.80;75.30;;;;;;1902753;74;21567;-71
2022/02/19 08:38:30;;;;;;;6.42;3.40;;;31.80;76.90;;;;;;1939082;73;21614;-71
2022/02/19 08:41:01;;;;;;;7.33;4.05;;;31.80;75.80;;;;;;1895363;74;21617;-71
2022/02/19 08:43:32;;;;;;;7.60;3.90;;;31.80;78.00;;;;;;1909605;73;21292;-73
2022/02/19 08:46:03;;;;;;;6.40;4.20;;;31.70;77.20;;;;;;1883876;73;21204;-75
2022/02/19 08:48:34;;;;;;;6.90;3.27;;;31.80;76.30;;;;;;1926206;72;21630;-74
2022/02/19 08:51:05;;;;;;;6.83;3.72;;;31.80;75.30;;;;;;1921889;73;21056;-74
2022/02/19 08:53:41;;;;;;;7.10;3.80;;;31.70;74.10;;;;;;1922996;72;21526;-73
2022/02/19 08:56:15;;;;;;;7.17;4.70;;;31.80;75.10;;;;;;1933307;72;21244;-74
2022/02/19 08:58:47;;;;;;;6.45;3.60;;;31.80;74.90;;;;;;1890300;72;21150;-75
2022/02/19 09:01:18;;;;;;;10.50;4.80;;;31.80;74.50;;;;;;1907614;73;21184;-73
2022/02/19 09:03:49;;;;;;;10.85;4.00;;;31.90;73.90;;;;;;1900563;72;21536;-71
2022/02/19 09:06:22;;;;;;;16.65;5.42;;;31.90;74.00;;;;;;1926825;72;21651;-72
2022/02/19 09:08:53;;;;;;;5.95;3.50;;;32.00;73.90;;;;;;1935393;72;21076;-72
2022/02/19 09:11:23;;;;;;;6.60;3.52;;;32.10;72.70;;;;;;1912095;73;21181;-72
2022/02/19 09:13:55;;;;;;;17.42;15.10;;;32.20;71.60;;;;;;1907877;73;21952;-73
2022/02/19 09:16:29;;;;;;;6.65;3.85;;;32.10;74.00;;;;;;1925551;72;21056;-73
2022/02/19 09:18:59;;;;;;;8.30;3.90;;;32.20;70.80;;;;;;1869614;74;21142;-72
2022/02/19 09:21:30;;;;;;;6.85;3.52;;;32.10;70.90;;;;;;1877640;74;21152;-70
2022/02/19 09:24:03;;;;;;;3.30;2.90;;;32.00;69.90;;;;;;1885460;74;21669;-70
2022/02/19 09:26:34;;;;;;;6.85;3.42;;;32.00;73.10;;;;;;1895877;74;21217;-71
2022/02/19 09:29:09;;;;;;;5.78;3.87;;;32.00;71.90;;;;;;1888381;74;21136;-72
2022/02/19 09:32:59;;;;;;;;;;;;;;;;;;;;;
2022/02/19 09:34:45;;;;;;;6.08;3.55;;;32.00;70.00;;;;;;1886125;74;21247;-72
2022/02/19 09:37:20;;;;;;;5.22;3.65;;;32.00;71.00;;;;;;1893785;73;21104;-72
2022/02/19 09:39:51;;;;;;;8.35;3.65;;;32.00;70.70;;;;;;1909247;73;21716;-72
2022/02/19 09:42:27;;;;;;;5.87;3.80;;;32.00;70.40;;;;;;1941412;72;21630;-72
2022/02/19 09:44:57;;;;;;;8.63;4.47;;;31.90;70.80;;;;;;1926618;72;21202;-73
2022/02/19 09:47:32;;;;;;;7.05;4.10;;;31.80;73.00;;;;;;1933350;72;21159;-74
2022/02/19 09:50:04;;;;;;;6.92;3.87;;;31.80;71.30;;;;;;1954018;72;21068;-74
2022/02/19 09:52:38;;;;;;;7.08;4.20;;;31.70;71.80;;;;;;1892814;74;21167;-74
2022/02/19 09:55:11;;;;;;;8.53;4.05;;;31.70;73.80;;;;;;1891352;74;21251;-73
2022/02/19 09:57:41;;;;;;;7.60;3.67;;;31.60;72.80;;;;;;1904121;74;21166;-74
2022/02/19 10:00:13;;;;;;;8.35;4.17;;;31.60;73.00;;;;;;1885055;75;21799;-73
2022/02/19 10:02:43;;;;;;;12.13;4.78;;;31.60;73.50;;;;;;1906787;73;21595;-73
2022/02/19 10:05:27;;;;;;;12.35;4.58;;;31.50;73.10;;;;;;1925277;72;21127;-74
2022/02/19 10:08:06;;;;;;;10.28;4.62;;;31.50;73.80;;;;;;1902027;72;21481;-73
2022/02/19 10:10:37;;;;;;;6.87;3.70;;;31.50;76.30;;;;;;1895248;74;21230;-72
2022/02/19 10:13:10;;;;;;;10.85;6.45;;;31.40;73.50;;;;;;1897898;73;21249;-72
2022/02/19 10:15:46;;;;;;;7.87;4.62;;;31.40;76.50;;;;;;1899539;74;21088;-73
2022/02/19 10:18:20;;;;;;;7.10;4.53;;;31.40;74.90;;;;;;1929808;73;21091;-71
2022/02/19 10:20:53;;;;;;;9.45;4.50;;;31.40;74.40;;;;;;1908458;73;21529;-73
2022/02/19 10:23:25;;;;;;;6.67;4.60;;;31.30;75.80;;;;;;1910086;73;21104;-72
2022/02/19 10:25:58;;;;;;;6.78;4.70;;;31.30;74.10;;;;;;1909947;74;21175;-73
2022/02/19 10:28:29;;;;;;;10.63;5.78;;;31.20;75.60;;;;;;1874118;75;21195;-73
2022/02/19 10:31:02;;;;;;;8.25;5.05;;;31.20;74.60;;;;;;1870485;73;21064;-73
2022/02/19 10:33:33;;;;;;;8.15;5.05;;;31.20;77.80;;;;;;1904890;73;21138;-75
2022/02/19 10:36:05;;;;;;;7.25;5.12;;;31.20;75.20;;;;;;1918357;73;21237;-73
2022/02/19 10:38:38;;;;;;;7.45;5.50;;;31.10;74.30;;;;;;1919145;73;21956;-73
2022/02/19 10:41:11;;;;;;;10.03;5.28;;;31.10;78.00;;;;;;1902007;73;22245;-73
2022/02/19 10:43:49;;;;;;;10.78;6.12;;;31.10;75.50;;;;;;1886630;73;21049;-72
2022/02/19 10:46:25;;;;;;;8.50;5.30;;;31.10;75.50;;;;;;1909557;73;21570;-72
2022/02/19 10:48:55;;;;;;;11.40;5.28;;;31.10;75.80;;;;;;1874813;73;21567;-72
2022/02/19 10:51:28;;;;;;;12.30;6.33;;;31.10;75.70;;;;;;1871139;74;21670;-73
2022/02/19 10:54:00;;;;;;;10.48;5.75;;;31.10;76.00;;;;;;1876936;74;21970;-74
2022/02/19 10:56:33;;;;;;;8.05;5.47;;;31.00;76.80;;;;;;1921132;72;21160;-73
2022/02/19 10:59:06;;;;;;;8.98;5.60;;;30.90;76.70;;;;;;1885972;74;21146;-73
2022/02/19 11:01:40;;;;;;;9.85;6.08;;;30.90;77.30;;;;;;1907855;73;21605;-74
2022/02/19 11:04:13;;;;;;;11.55;6.22;;;30.80;77.50;;;;;;1888019;75;21617;-73
2022/02/19 11:06:44;;;;;;;8.38;5.60;;;30.80;78.10;;;;;;1903025;75;21068;-73
2022/02/19 11:09:16;;;;;;;7.90;5.45;;;30.70;78.20;;;;;;1898065;74;21707;-74
2022/02/19 11:11:49;;;;;;;11.80;6.37;;;30.60;78.60;;;;;;1851283;76;21098;-72
2022/02/19 11:14:20;;;;;;;11.08;7.05;;;30.40;79.30;;;;;;1887848;73;21730;-73
2022/02/19 11:16:52;;;;;;;12.35;6.80;;;30.30;80.20;;;;;;1869248;75;21161;-73
2022/02/19 11:19:23;;;;;;;7.75;5.78;;;30.30;80.90;;;;;;1906012;73;21623;-74
2022/02/19 11:21:57;;;;;;;9.70;6.53;;;30.10;80.80;;;;;;1846030;76;21694;-73
2022/02/19 11:24:28;;;;;;;12.33;6.25;;;30.00;81.60;;;;;;1902458;74;21584;-73
2022/02/19 11:27:03;;;;;;;9.20;6.00;;;30.00;82.20;;;;;;1883140;74;21121;-73
2022/02/19 11:29:34;;;;;;;8.85;5.37;;;29.90;82.30;;;;;;1905683;73;21234;-73
2022/02/19 11:32:05;;;;;;;9.75;6.75;;;29.80;82.50;;;;;;1920652;73;21716;-74
2022/02/19 11:34:37;;;;;;;13.40;6.42;;;29.80;83.40;;;;;;1895225;73;21162;-72
2022/02/19 11:37:11;;;;;;;9.98;6.53;;;29.70;83.10;;;;;;1917251;73;21115;-73
2022/02/19 11:39:45;;;;;;;9.78;6.45;;;29.60;83.30;;;;;;1924949;73;21155;-73
2022/02/19 11:42:19;;;;;;;11.18;5.90;;;29.60;83.50;;;;;;1905310;73;22551;-73
2022/02/19 11:44:56;;;;;;;9.10;6.33;;;29.60;84.00;;;;;;1899474;73;21070;-72
2022/02/19 11:47:30;;;;;;;13.32;7.08;;;29.60;84.40;;;;;;1952803;73;21148;-72
2022/02/19 11:50:04;;;;;;;12.40;6.28;;;29.50;84.70;;;;;;1890461;72;21185;-74
2022/02/19 11:52:36;;;;;;;10.15;7.30;;;29.50;84.80;;;;;;1889549;73;21562;-71
2022/02/19 11:58:02;;;;;;;13.00;7.67;;;29.50;85.30;;;;;;1851750;76;21158;-89
2022/02/19 12:00:35;;;;;;;13.78;8.05;;;29.50;84.90;;;;;;1872598;75;21236;-90
2022/02/19 12:03:30;;;;;;;;;;;;;;;;;;;;;
2022/02/19 12:06:07;;;;;;;12.78;6.92;;;29.50;84.80;;;;;;1878794;74;21174;-89
2022/02/19 12:08:40;;;;;;;10.43;7.37;;;29.50;85.00;;;;;;1906881;73;21147;-89
2022/02/19 12:11:13;;;;;;;12.28;7.10;;;29.40;84.80;;;;;;1887072;74;21155;-89
2022/02/19 12:13:46;;;;;;;14.40;6.97;;;29.40;84.80;;;;;;1836849;76;21656;-90
2022/02/19 12:16:19;;;;;;;15.90;7.10;;;29.40;84.80;;;;;;1869179;75;21631;-91
2022/02/19 12:18:56;;;;;;;12.50;6.90;;;29.40;85.00;;;;;;1870390;74;21271;-90
2022/02/19 12:21:37;;;;;;;13.20;8.23;;;29.40;85.50;;;;;;1859025;75;21870;-90
2022/02/19 12:24:13;;;;;;;20.30;10.95;;;29.40;85.70;;;;;;1874632;74;21190;-89
2022/02/19 12:26:53;;;;;;;15.50;7.87;;;29.40;85.70;;;;;;1864751;75;21207;-88
2022/02/19 12:29:26;;;;;;;13.32;8.13;;;29.40;85.50;;;;;;1878180;75;21141;-87
2022/02/19 12:32:00;;;;;;;12.33;7.45;;;29.40;85.40;;;;;;1886922;75;21224;-89
2022/02/19 12:34:36;;;;;;;13.80;8.28;;;29.40;85.50;;;;;;1879610;74;21235;-89
2022/02/19 12:37:11;;;;;;;15.10;8.30;;;29.50;85.50;;;;;;1896452;72;21213;-91
2022/02/19 12:42:53;;;;;;;16.75;9.73;;;29.50;85.70;;;;;;1894340;72;21206;-90
2022/02/19 12:45:29;;;;;;;13.55;9.63;;;29.50;85.90;;;;;;1921470;73;21197;-88
2022/02/19 12:48:06;;;;;;;17.57;10.30;;;29.50;85.60;;;;;;1884439;74;21122;-92
2022/02/19 12:50:40;;;;;;;18.98;10.15;;;29.50;85.80;;;;;;1887211;74;21194;-89
2022/02/19 12:53:11;;;;;;;17.92;9.38;;;29.50;85.80;;;;;;1917508;73;21594;-89
2022/02/19 12:55:43;;;;;;;14.40;10.05;;;29.50;86.00;;;;;;1894223;72;21550;-88
2022/02/19 12:58:39;;;;;;;18.37;11.88;;;29.50;85.90;;;;;;1941438;73;21121;-87
2022/02/19 13:00:58;;;;;;;20.32;11.73;;;29.50;86.10;;;;;;1902772;74;21556;-89
2022/02/19 13:03:32;;;;;;;18.70;11.20;;;29.50;86.20;;;;;;1919793;72;21163;-89
2022/02/19 13:06:02;;;;;;;16.30;10.95;;;29.50;86.20;;;;;;1921788;73;21135;-89
2022/02/19 13:08:35;;;;;;;15.10;10.15;;;29.50;86.40;;;;;;1884352;74;21578;-87
2022/02/19 13:11:08;;;;;;;16.82;10.32;;;29.50;86.30;;;;;;1899120;74;21553;-88
2022/02/19 13:13:40;;;;;;;14.90;9.98;;;29.50;86.50;;;;;;1917316;73;21119;-89
2022/02/19 13:16:12;;;;;;;18.95;10.93;;;29.50;86.60;;;;;;1918660;73;21619;-89
2022/02/19 13:18:45;;;;;;;15.45;11.05;;;29.50;86.70;;;;;;1931586;73;21124;-90
2022/02/19 13:21:18;;;;;;;16.80;10.48;;;29.50;86.70;;;;;;1920397;73;21208;-90
2022/02/19 13:23:51;;;;;;;19.15;11.40;;;29.50;86.70;;;;;;1900374;73;21099;-90
2022/02/19 13:26:24;;;;;;;17.98;10.80;;;29.50;86.80;;;;;;1927071;73;21210;-90
2022/02/19 13:28:57;;;;;;;18.98;11.20;;;29.50;86.90;;;;;;1898662;73;21119;-90